sensor_id;sensor_type;location;lat;lon;timestamp;temperature;humidity
67750;DHT22;54550;48.838;8.828;2022-07-17T00:02:13;14.80;94.60
67750;DHT22;54550;48.838;8.828;2022-07-17T00:04:38;14.70;95.20
67750;DHT22;54550;48.838;8.828;2022-07-17T00:07:04;14.70;95.60
67750;DHT22;54550;48.838;8.828;2022-07-17T00:09:29;14.60;96.10
67750;DHT22;54550;48.838;8.828;2022-07-17T00:11:55;14.50;95.80
67750;DHT22;54550;48.838;8.828;2022-07-17T00:14:21;14.50;96.10
67750;DHT22;54550;48.838;8.828;2022-07-17T00:16:46;14.40;96.20
67750;DHT22;54550;48.838;8.828;2022-07-17T00:19:12;14.40;96.10
67750;DHT22;54550;48.838;8.828;2022-07-17T00:21:37;14.40;96.40
67750;DHT22;54550;48.838;8.828;2022-07-17T00:24:03;14.40;96.60
67750;DHT22;54550;48.838;8.828;2022-07-17T00:26:31;14.50;96.60
67750;DHT22;54550;48.838;8.828;2022-07-17T00:28:57;14.40;96.90
67750;DHT22;54550;48.838;8.828;2022-07-17T00:31:23;14.30;97.50
67750;DHT22;54550;48.838;8.828;2022-07-17T00:33:48;14.20;97.90
67750;DHT22;54550;48.838;8.828;2022-07-17T00:36:14;14.10;98.20
67750;DHT22;54550;48.838;8.828;2022-07-17T00:38:39;14.10;98.60
67750;DHT22;54550;48.838;8.828;2022-07-17T00:41:05;14.00;98.90
67750;DHT22;54550;48.838;8.828;2022-07-17T00:43:30;13.90;99.30
67750;DHT22;54550;48.838;8.828;2022-07-17T00:46:01;13.80;99.70
67750;DHT22;54550;48.838;8.828;2022-07-17T00:48:27;13.80;99.90
67750;DHT22;54550;48.838;8.828;2022-07-17T00:50:53;13.80;99.50
67750;DHT22;54550;48.838;8.828;2022-07-17T00:53:19;13.90;99.10
67750;DHT22;54550;48.838;8.828;2022-07-17T00:55:47;14.00;99.20
67750;DHT22;54550;48.838;8.828;2022-07-17T00:58:24;14.00;99.40
67750;DHT22;54550;48.838;8.828;2022-07-17T01:00:52;14.00;99.60
67750;DHT22;54550;48.838;8.828;2022-07-17T01:03:19;13.80;99.90
67750;DHT22;54550;48.838;8.828;2022-07-17T01:05:46;13.70;99.90
67750;DHT22;54550;48.838;8.828;2022-07-17T01:08:12;13.60;99.90
67750;DHT22;54550;48.838;8.828;2022-07-17T01:10:38;13.40;99.90
67750;DHT22;54550;48.838;8.828;2022-07-17T01:13:04;13.40;99.90
67750;DHT22;54550;48.838;8.828;2022-07-17T01:15:31;13.30;99.90
67750;DHT22;54550;48.838;8.828;2022-07-17T01:17:57;13.20;99.90
67750;DHT22;54550;48.838;8.828;2022-07-17T01:20:23;13.20;99.90
67750;DHT22;54550;48.838;8.828;2022-07-17T01:22:51;13.10;99.90
67750;DHT22;54550;48.838;8.828;2022-07-17T01:25:20;13.20;99.90
67750;DHT22;54550;48.838;8.828;2022-07-17T01:27:46;13.20;99.90
67750;DHT22;54550;48.838;8.828;2022-07-17T01:30:12;13.20;99.90
67750;DHT22;54550;48.838;8.828;2022-07-17T01:32:39;13.30;99.90
67750;DHT22;54550;48.838;8.828;2022-07-17T01:35:06;13.20;99.90
67750;DHT22;54550;48.838;8.828;2022-07-17T01:37:32;13.30;99.90
67750;DHT22;54550;48.838;8.828;2022-07-17T01:39:58;13.30;99.90
67750;DHT22;54550;48.838;8.828;2022-07-17T01:42:25;13.30;99.90
67750;DHT22;54550;48.838;8.828;2022-07-17T01:44:52;13.20;99.90
67750;DHT22;54550;48.838;8.828;2022-07-17T01:47:18;13.40;99.90
67750;DHT22;54550;48.838;8.828;2022-07-17T01:49:48;13.40;99.90
67750;DHT22;54550;48.838;8.828;2022-07-17T01:52:14;13.40;99.90
67750;DHT22;54550;48.838;8.828;2022-07-17T01:54:41;13.40;99.90
67750;DHT22;54550;48.838;8.828;2022-07-17T01:57:06;13.40;99.90
67750;DHT22;54550;48.838;8.828;2022-07-17T01:59:32;13.40;99.90
67750;DHT22;54550;48.838;8.828;2022-07-17T02:01:58;13.40;99.90
67750;DHT22;54550;48.838;8.828;2022-07-17T02:04:23;13.40;99.90
67750;DHT22;54550;48.838;8.828;2022-07-17T02:06:49;13.40;99.90
67750;DHT22;54550;48.838;8.828;2022-07-17T02:09:14;13.40;99.90
67750;DHT22;54550;48.838;8.828;2022-07-17T02:11:40;13.30;99.90
67750;DHT22;54550;48.838;8.828;2022-07-17T02:14:05;13.30;99.90
67750;DHT22;54550;48.838;8.828;2022-07-17T02:16:31;13.20;99.90
67750;DHT22;54550;48.838;8.828;2022-07-17T02:18:56;13.30;99.90
67750;DHT22;54550;48.838;8.828;2022-07-17T02:21:22;13.10;99.90
67750;DHT22;54550;48.838;8.828;2022-07-17T02:23:47;13.00;99.90
67750;DHT22;54550;48.838;8.828;2022-07-17T02:26:13;12.90;99.90
67750;DHT22;54550;48.838;8.828;2022-07-17T02:28:38;12.80;99.90
67750;DHT22;54550;48.838;8.828;2022-07-17T02:31:04;12.70;99.90
67750;DHT22;54550;48.838;8.828;2022-07-17T02:33:29;12.60;99.90
67750;DHT22;54550;48.838;8.828;2022-07-17T02:35:55;12.60;99.90
67750;DHT22;54550;48.838;8.828;2022-07-17T02:38:21;12.60;99.90
67750;DHT22;54550;48.838;8.828;2022-07-17T02:40:46;12.50;99.90
67750;DHT22;54550;48.838;8.828;2022-07-17T02:43:12;12.60;99.90
67750;DHT22;54550;48.838;8.828;2022-07-17T02:45:37;12.50;99.90
67750;DHT22;54550;48.838;8.828;2022-07-17T02:48:03;12.50;99.90
67750;DHT22;54550;48.838;8.828;2022-07-17T02:50:29;12.40;99.90
67750;DHT22;54550;48.838;8.828;2022-07-17T02:52:54;12.40;99.90
67750;DHT22;54550;48.838;8.828;2022-07-17T02:55:20;12.30;99.90
67750;DHT22;54550;48.838;8.828;2022-07-17T02:57:45;12.30;99.90
67750;DHT22;54550;48.838;8.828;2022-07-17T03:00:16;12.30;99.90
67750;DHT22;54550;48.838;8.828;2022-07-17T03:02:45;12.30;99.90
67750;DHT22;54550;48.838;8.828;2022-07-17T03:05:12;12.30;99.90
67750;DHT22;54550;48.838;8.828;2022-07-17T03:07:37;12.30;99.90
67750;DHT22;54550;48.838;8.828;2022-07-17T03:10:04;12.30;99.90
67750;DHT22;54550;48.838;8.828;2022-07-17T03:12:30;12.20;99.90
67750;DHT22;54550;48.838;8.828;2022-07-17T03:14:55;12.20;99.90
67750;DHT22;54550;48.838;8.828;2022-07-17T03:17:21;12.00;99.90
67750;DHT22;54550;48.838;8.828;2022-07-17T03:19:46;12.00;99.90
67750;DHT22;54550;48.838;8.828;2022-07-17T03:22:12;11.90;99.90
67750;DHT22;54550;48.838;8.828;2022-07-17T03:24:37;11.90;99.90
67750;DHT22;54550;48.838;8.828;2022-07-17T03:27:03;11.80;99.90
67750;DHT22;54550;48.838;8.828;2022-07-17T03:29:29;11.80;99.90
67750;DHT22;54550;48.838;8.828;2022-07-17T03:31:54;11.80;99.90
67750;DHT22;54550;48.838;8.828;2022-07-17T03:34:20;11.70;99.90
67750;DHT22;54550;48.838;8.828;2022-07-17T03:36:45;11.80;99.90
67750;DHT22;54550;48.838;8.828;2022-07-17T03:39:12;11.80;99.90
67750;DHT22;54550;48.838;8.828;2022-07-17T03:41:37;12.00;99.90
67750;DHT22;54550;48.838;8.828;2022-07-17T03:44:03;12.00;99.90
67750;DHT22;54550;48.838;8.828;2022-07-17T03:46:28;11.90;99.90
67750;DHT22;54550;48.838;8.828;2022-07-17T03:48:54;11.90;99.90
67750;DHT22;54550;48.838;8.828;2022-07-17T03:51:19;11.90;99.90
67750;DHT22;54550;48.838;8.828;2022-07-17T03:53:45;11.90;99.90
67750;DHT22;54550;48.838;8.828;2022-07-17T03:56:11;11.90;99.90
67750;DHT22;54550;48.838;8.828;2022-07-17T03:58:36;12.30;99.90
67750;DHT22;54550;48.838;8.828;2022-07-17T04:01:02;12.90;99.90
67750;DHT22;54550;48.838;8.828;2022-07-17T04:03:28;13.50;99.90
67750;DHT22;54550;48.838;8.828;2022-07-17T04:05:53;14.00;99.90
67750;DHT22;54550;48.838;8.828;2022-07-17T04:08:19;14.40;99.90
67750;DHT22;54550;48.838;8.828;2022-07-17T04:10:45;14.70;99.90
67750;DHT22;54550;48.838;8.828;2022-07-17T04:13:11;14.80;99.60
67750;DHT22;54550;48.838;8.828;2022-07-17T04:15:37;15.00;98.90
67750;DHT22;54550;48.838;8.828;2022-07-17T04:18:18;15.50;98.00
67750;DHT22;54550;48.838;8.828;2022-07-17T04:20:44;15.40;97.90
67750;DHT22;54550;48.838;8.828;2022-07-17T04:23:10;15.00;98.40
67750;DHT22;54550;48.838;8.828;2022-07-17T04:25:36;14.60;99.80
67750;DHT22;54550;48.838;8.828;2022-07-17T04:28:02;14.10;99.90
67750;DHT22;54550;48.838;8.828;2022-07-17T04:30:29;13.80;99.90
67750;DHT22;54550;48.838;8.828;2022-07-17T04:32:54;13.70;99.90
67750;DHT22;54550;48.838;8.828;2022-07-17T04:35:20;13.60;99.90
67750;DHT22;54550;48.838;8.828;2022-07-17T04:37:45;14.20;99.90
67750;DHT22;54550;48.838;8.828;2022-07-17T04:40:11;15.80;98.90
67750;DHT22;54550;48.838;8.828;2022-07-17T04:42:37;17.30;94.50
67750;DHT22;54550;48.838;8.828;2022-07-17T04:45:03;18.60;91.50
67750;DHT22;54550;48.838;8.828;2022-07-17T04:47:29;19.30;86.40
67750;DHT22;54550;48.838;8.828;2022-07-17T04:49:54;19.60;83.60
67750;DHT22;54550;48.838;8.828;2022-07-17T04:52:20;20.30;79.90
67750;DHT22;54550;48.838;8.828;2022-07-17T04:54:45;20.60;78.30
67750;DHT22;54550;48.838;8.828;2022-07-17T04:57:11;21.40;76.50
67750;DHT22;54550;48.838;8.828;2022-07-17T04:59:36;21.60;74.10
67750;DHT22;54550;48.838;8.828;2022-07-17T05:02:04;21.40;74.50
67750;DHT22;54550;48.838;8.828;2022-07-17T05:04:31;22.20;72.00
67750;DHT22;54550;48.838;8.828;2022-07-17T05:06:57;23.10;69.80
67750;DHT22;54550;48.838;8.828;2022-07-17T05:09:23;21.90;71.90
67750;DHT22;54550;48.838;8.828;2022-07-17T05:11:48;21.60;72.40
67750;DHT22;54550;48.838;8.828;2022-07-17T05:14:14;21.70;72.40
67750;DHT22;54550;48.838;8.828;2022-07-17T05:16:39;21.50;71.50
67750;DHT22;54550;48.838;8.828;2022-07-17T05:19:05;21.60;72.60
67750;DHT22;54550;48.838;8.828;2022-07-17T05:21:31;21.90;71.80
67750;DHT22;54550;48.838;8.828;2022-07-17T05:23:56;22.40;70.20
67750;DHT22;54550;48.838;8.828;2022-07-17T05:26:23;22.10;70.80
67750;DHT22;54550;48.838;8.828;2022-07-17T05:28:49;21.90;72.80
67750;DHT22;54550;48.838;8.828;2022-07-17T05:31:14;22.40;72.10
67750;DHT22;54550;48.838;8.828;2022-07-17T05:33:40;22.40;69.10
67750;DHT22;54550;48.838;8.828;2022-07-17T05:36:05;22.60;70.10
67750;DHT22;54550;48.838;8.828;2022-07-17T05:38:31;22.90;70.60
67750;DHT22;54550;48.838;8.828;2022-07-17T05:40:57;23.00;71.00
67750;DHT22;54550;48.838;8.828;2022-07-17T05:43:22;22.80;73.00
67750;DHT22;54550;48.838;8.828;2022-07-17T05:45:48;23.10;70.50
67750;DHT22;54550;48.838;8.828;2022-07-17T05:48:13;23.60;68.50
67750;DHT22;54550;48.838;8.828;2022-07-17T05:50:39;24.30;67.20
67750;DHT22;54550;48.838;8.828;2022-07-17T05:53:04;24.40;68.90
67750;DHT22;54550;48.838;8.828;2022-07-17T05:55:30;24.30;67.70
67750;DHT22;54550;48.838;8.828;2022-07-17T05:57:55;24.50;66.90
67750;DHT22;54550;48.838;8.828;2022-07-17T06:00:21;24.40;66.10
67750;DHT22;54550;48.838;8.828;2022-07-17T06:02:47;24.50;66.90
67750;DHT22;54550;48.838;8.828;2022-07-17T06:05:12;24.70;66.00
67750;DHT22;54550;48.838;8.828;2022-07-17T06:07:38;24.90;65.10
67750;DHT22;54550;48.838;8.828;2022-07-17T06:10:04;24.60;67.00
67750;DHT22;54550;48.838;8.828;2022-07-17T06:12:30;24.20;66.80
67750;DHT22;54550;48.838;8.828;2022-07-17T06:14:56;25.60;64.40
67750;DHT22;54550;48.838;8.828;2022-07-17T06:17:21;26.00;62.10
67750;DHT22;54550;48.838;8.828;2022-07-17T06:19:47;26.00;63.10
67750;DHT22;54550;48.838;8.828;2022-07-17T06:22:19;25.60;63.60
67750;DHT22;54550;48.838;8.828;2022-07-17T06:24:46;25.60;63.30
67750;DHT22;54550;48.838;8.828;2022-07-17T06:27:12;26.00;62.60
67750;DHT22;54550;48.838;8.828;2022-07-17T06:29:38;26.50;62.30
67750;DHT22;54550;48.838;8.828;2022-07-17T06:32:03;27.40;58.80
67750;DHT22;54550;48.838;8.828;2022-07-17T06:34:29;26.90;59.40
67750;DHT22;54550;48.838;8.828;2022-07-17T06:36:55;27.40;59.10
67750;DHT22;54550;48.838;8.828;2022-07-17T06:39:20;26.80;59.90
67750;DHT22;54550;48.838;8.828;2022-07-17T06:41:46;26.40;59.90
67750;DHT22;54550;48.838;8.828;2022-07-17T06:44:11;26.20;60.30
67750;DHT22;54550;48.838;8.828;2022-07-17T06:46:37;26.10;61.50
67750;DHT22;54550;48.838;8.828;2022-07-17T06:49:02;27.00;59.30
67750;DHT22;54550;48.838;8.828;2022-07-17T06:51:28;26.90;59.30
67750;DHT22;54550;48.838;8.828;2022-07-17T06:53:53;27.40;58.10
67750;DHT22;54550;48.838;8.828;2022-07-17T06:56:19;27.90;57.90
67750;DHT22;54550;48.838;8.828;2022-07-17T06:58:45;27.80;57.30
67750;DHT22;54550;48.838;8.828;2022-07-17T07:01:10;27.00;58.90
67750;DHT22;54550;48.838;8.828;2022-07-17T07:03:36;26.30;59.60
67750;DHT22;54550;48.838;8.828;2022-07-17T07:06:01;26.30;60.90
67750;DHT22;54550;48.838;8.828;2022-07-17T07:08:27;27.00;58.40
67750;DHT22;54550;48.838;8.828;2022-07-17T07:10:52;27.00;57.90
67750;DHT22;54550;48.838;8.828;2022-07-17T07:13:18;26.80;59.10
67750;DHT22;54550;48.838;8.828;2022-07-17T07:15:43;26.70;58.30
67750;DHT22;54550;48.838;8.828;2022-07-17T07:18:09;26.90;59.40
67750;DHT22;54550;48.838;8.828;2022-07-17T07:20:35;27.20;57.70
67750;DHT22;54550;48.838;8.828;2022-07-17T07:23:00;27.40;56.80
67750;DHT22;54550;48.838;8.828;2022-07-17T07:25:26;27.00;57.50
67750;DHT22;54550;48.838;8.828;2022-07-17T07:27:51;26.10;58.40
67750;DHT22;54550;48.838;8.828;2022-07-17T07:30:17;26.00;58.30
67750;DHT22;54550;48.838;8.828;2022-07-17T07:32:43;25.20;60.10
67750;DHT22;54550;48.838;8.828;2022-07-17T07:35:09;24.50;60.80
67750;DHT22;54550;48.838;8.828;2022-07-17T07:37:35;25.00;61.10
67750;DHT22;54550;48.838;8.828;2022-07-17T07:40:01;24.60;60.70
67750;DHT22;54550;48.838;8.828;2022-07-17T07:42:27;24.30;61.80
67750;DHT22;54550;48.838;8.828;2022-07-17T07:44:53;24.00;61.90
67750;DHT22;54550;48.838;8.828;2022-07-17T07:47:19;23.70;63.50
67750;DHT22;54550;48.838;8.828;2022-07-17T07:49:45;24.40;62.40
67750;DHT22;54550;48.838;8.828;2022-07-17T07:52:10;24.10;62.80
67750;DHT22;54550;48.838;8.828;2022-07-17T07:54:36;24.30;62.20
67750;DHT22;54550;48.838;8.828;2022-07-17T07:57:01;25.00;62.90
67750;DHT22;54550;48.838;8.828;2022-07-17T07:59:28;25.40;60.30
67750;DHT22;54550;48.838;8.828;2022-07-17T08:01:54;25.40;59.90
67750;DHT22;54550;48.838;8.828;2022-07-17T08:04:20;24.70;60.90
67750;DHT22;54550;48.838;8.828;2022-07-17T08:06:46;24.80;61.60
67750;DHT22;54550;48.838;8.828;2022-07-17T08:09:12;25.10;61.50
67750;DHT22;54550;48.838;8.828;2022-07-17T08:11:37;25.30;59.60
67750;DHT22;54550;48.838;8.828;2022-07-17T08:14:03;25.10;61.40
67750;DHT22;54550;48.838;8.828;2022-07-17T08:16:28;24.80;62.00
67750;DHT22;54550;48.838;8.828;2022-07-17T08:18:54;24.70;61.80
67750;DHT22;54550;48.838;8.828;2022-07-17T08:21:19;24.70;61.10
67750;DHT22;54550;48.838;8.828;2022-07-17T08:23:48;24.60;62.70
67750;DHT22;54550;48.838;8.828;2022-07-17T08:26:13;24.90;61.30
67750;DHT22;54550;48.838;8.828;2022-07-17T08:28:39;24.60;62.00
67750;DHT22;54550;48.838;8.828;2022-07-17T08:31:05;24.80;62.10
67750;DHT22;54550;48.838;8.828;2022-07-17T08:33:30;24.80;61.90
67750;DHT22;54550;48.838;8.828;2022-07-17T08:35:56;24.80;62.40
67750;DHT22;54550;48.838;8.828;2022-07-17T08:38:21;25.00;61.20
67750;DHT22;54550;48.838;8.828;2022-07-17T08:40:47;24.70;62.00
67750;DHT22;54550;48.838;8.828;2022-07-17T08:43:16;25.00;61.60
67750;DHT22;54550;48.838;8.828;2022-07-17T08:45:43;25.10;60.40
67750;DHT22;54550;48.838;8.828;2022-07-17T08:48:13;25.10;60.30
67750;DHT22;54550;48.838;8.828;2022-07-17T08:50:39;25.40;60.50
67750;DHT22;54550;48.838;8.828;2022-07-17T08:53:05;25.40;60.70
67750;DHT22;54550;48.838;8.828;2022-07-17T08:55:31;25.60;59.30
67750;DHT22;54550;48.838;8.828;2022-07-17T08:57:57;26.00;59.40
67750;DHT22;54550;48.838;8.828;2022-07-17T09:00:24;26.10;58.60
67750;DHT22;54550;48.838;8.828;2022-07-17T09:02:55;26.00;57.40
67750;DHT22;54550;48.838;8.828;2022-07-17T09:05:22;26.30;57.50
67750;DHT22;54550;48.838;8.828;2022-07-17T09:07:48;25.80;57.70
67750;DHT22;54550;48.838;8.828;2022-07-17T09:10:14;25.60;57.80
67750;DHT22;54550;48.838;8.828;2022-07-17T09:12:40;25.70;56.70
67750;DHT22;54550;48.838;8.828;2022-07-17T09:15:19;25.40;57.50
67750;DHT22;54550;48.838;8.828;2022-07-17T09:17:49;25.10;56.80
67750;DHT22;54550;48.838;8.828;2022-07-17T09:20:14;25.40;57.80
67750;DHT22;54550;48.838;8.828;2022-07-17T09:22:42;25.70;56.40
67750;DHT22;54550;48.838;8.828;2022-07-17T09:25:08;26.00;57.30
67750;DHT22;54550;48.838;8.828;2022-07-17T09:27:33;26.20;56.30
67750;DHT22;54550;48.838;8.828;2022-07-17T09:30:11;26.30;55.90
67750;DHT22;54550;48.838;8.828;2022-07-17T09:32:41;26.30;55.70
67750;DHT22;54550;48.838;8.828;2022-07-17T09:35:11;26.20;56.80
67750;DHT22;54550;48.838;8.828;2022-07-17T09:37:37;27.30;54.10
67750;DHT22;54550;48.838;8.828;2022-07-17T09:40:11;26.90;54.00
67750;DHT22;54550;48.838;8.828;2022-07-17T09:42:57;26.90;54.60
67750;DHT22;54550;48.838;8.828;2022-07-17T09:45:22;27.50;52.10
67750;DHT22;54550;48.838;8.828;2022-07-17T09:47:48;27.70;52.30
67750;DHT22;54550;48.838;8.828;2022-07-17T09:50:16;27.80;52.50
67750;DHT22;54550;48.838;8.828;2022-07-17T09:52:43;27.20;53.40
67750;DHT22;54550;48.838;8.828;2022-07-17T09:55:10;27.30;53.90
67750;DHT22;54550;48.838;8.828;2022-07-17T09:57:40;26.60;53.80
67750;DHT22;54550;48.838;8.828;2022-07-17T10:00:08;26.80;53.40
67750;DHT22;54550;48.838;8.828;2022-07-17T10:02:41;26.50;54.70
67750;DHT22;54550;48.838;8.828;2022-07-17T10:05:12;26.90;54.30
67750;DHT22;54550;48.838;8.828;2022-07-17T10:07:41;27.20;53.40
67750;DHT22;54550;48.838;8.828;2022-07-17T10:10:09;27.10;52.50
67750;DHT22;54550;48.838;8.828;2022-07-17T10:12:39;27.60;51.70
67750;DHT22;54550;48.838;8.828;2022-07-17T10:15:07;27.40;51.40
67750;DHT22;54550;48.838;8.828;2022-07-17T10:17:33;26.80;52.10
67750;DHT22;54550;48.838;8.828;2022-07-17T10:19:58;27.20;52.60
67750;DHT22;54550;48.838;8.828;2022-07-17T10:22:25;28.10;50.90
67750;DHT22;54550;48.838;8.828;2022-07-17T10:24:52;27.70;50.60
67750;DHT22;54550;48.838;8.828;2022-07-17T10:27:23;28.50;50.60
67750;DHT22;54550;48.838;8.828;2022-07-17T10:32:28;29.40;49.10
67750;DHT22;54550;48.838;8.828;2022-07-17T10:35:09;28.90;49.40
67750;DHT22;54550;48.838;8.828;2022-07-17T10:42:57;29.20;48.40
67750;DHT22;54550;48.838;8.828;2022-07-17T10:45:31;29.60;47.00
67750;DHT22;54550;48.838;8.828;2022-07-17T10:48:16;28.30;48.50
67750;DHT22;54550;48.838;8.828;2022-07-17T10:50:53;27.70;49.50
67750;DHT22;54550;48.838;8.828;2022-07-17T10:53:31;29.50;47.70
67750;DHT22;54550;48.838;8.828;2022-07-17T10:56:05;29.60;47.50
67750;DHT22;54550;48.838;8.828;2022-07-17T10:58:33;29.80;46.60
67750;DHT22;54550;48.838;8.828;2022-07-17T11:01:12;29.60;46.50
67750;DHT22;54550;48.838;8.828;2022-07-17T11:03:50;29.20;46.80
67750;DHT22;54550;48.838;8.828;2022-07-17T11:06:22;28.80;47.50
67750;DHT22;54550;48.838;8.828;2022-07-17T11:11:43;28.80;47.00
67750;DHT22;54550;48.838;8.828;2022-07-17T11:14:16;29.10;46.70
67750;DHT22;54550;48.838;8.828;2022-07-17T11:19:25;29.00;46.30
67750;DHT22;54550;48.838;8.828;2022-07-17T11:21:52;29.30;46.30
67750;DHT22;54550;48.838;8.828;2022-07-17T11:24:19;29.40;46.30
67750;DHT22;54550;48.838;8.828;2022-07-17T11:26:44;30.70;44.20
67750;DHT22;54550;48.838;8.828;2022-07-17T11:29:11;30.40;43.90
67750;DHT22;54550;48.838;8.828;2022-07-17T11:31:37;30.30;44.40
67750;DHT22;54550;48.838;8.828;2022-07-17T11:34:05;30.20;43.50
67750;DHT22;54550;48.838;8.828;2022-07-17T11:36:36;29.70;43.20
67750;DHT22;54550;48.838;8.828;2022-07-17T11:39:11;29.30;44.50
67750;DHT22;54550;48.838;8.828;2022-07-17T11:41:38;29.70;43.40
67750;DHT22;54550;48.838;8.828;2022-07-17T11:44:07;29.40;43.60
67750;DHT22;54550;48.838;8.828;2022-07-17T11:46:34;29.00;44.30
67750;DHT22;54550;48.838;8.828;2022-07-17T11:49:00;28.00;45.20
67750;DHT22;54550;48.838;8.828;2022-07-17T11:51:43;28.60;44.70
67750;DHT22;54550;48.838;8.828;2022-07-17T11:54:14;28.50;44.60
67750;DHT22;54550;48.838;8.828;2022-07-17T11:56:42;28.90;44.30
67750;DHT22;54550;48.838;8.828;2022-07-17T11:59:09;29.60;43.60
67750;DHT22;54550;48.838;8.828;2022-07-17T12:01:42;30.10;42.70
67750;DHT22;54550;48.838;8.828;2022-07-17T12:04:11;30.50;43.10
67750;DHT22;54550;48.838;8.828;2022-07-17T12:06:37;30.20;41.40
67750;DHT22;54550;48.838;8.828;2022-07-17T12:09:03;29.30;42.20
67750;DHT22;54550;48.838;8.828;2022-07-17T12:11:29;28.80;42.50
67750;DHT22;54550;48.838;8.828;2022-07-17T12:14:03;29.10;42.80
67750;DHT22;54550;48.838;8.828;2022-07-17T12:16:31;29.90;43.00
67750;DHT22;54550;48.838;8.828;2022-07-17T12:19:17;30.40;42.10
67750;DHT22;54550;48.838;8.828;2022-07-17T12:22:04;29.50;43.60
67750;DHT22;54550;48.838;8.828;2022-07-17T12:24:41;29.90;43.60
67750;DHT22;54550;48.838;8.828;2022-07-17T12:27:09;29.50;43.90
67750;DHT22;54550;48.838;8.828;2022-07-17T12:29:35;30.10;43.40
67750;DHT22;54550;48.838;8.828;2022-07-17T12:32:02;31.00;42.60
67750;DHT22;54550;48.838;8.828;2022-07-17T12:34:28;31.10;41.20
67750;DHT22;54550;48.838;8.828;2022-07-17T12:36:53;30.90;41.10
67750;DHT22;54550;48.838;8.828;2022-07-17T12:39:19;31.70;40.90
67750;DHT22;54550;48.838;8.828;2022-07-17T12:41:45;31.10;40.90
67750;DHT22;54550;48.838;8.828;2022-07-17T12:44:11;30.80;41.10
67750;DHT22;54550;48.838;8.828;2022-07-17T12:46:37;29.90;42.80
67750;DHT22;54550;48.838;8.828;2022-07-17T12:49:02;30.20;42.20
67750;DHT22;54550;48.838;8.828;2022-07-17T12:51:30;30.20;41.60
67750;DHT22;54550;48.838;8.828;2022-07-17T12:53:56;30.70;41.50
67750;DHT22;54550;48.838;8.828;2022-07-17T12:56:22;30.50;40.60
67750;DHT22;54550;48.838;8.828;2022-07-17T12:58:48;30.40;40.40
67750;DHT22;54550;48.838;8.828;2022-07-17T13:01:15;30.90;40.90
67750;DHT22;54550;48.838;8.828;2022-07-17T13:03:41;30.80;41.30
67750;DHT22;54550;48.838;8.828;2022-07-17T13:06:07;31.00;41.10
67750;DHT22;54550;48.838;8.828;2022-07-17T13:08:32;31.30;40.60
67750;DHT22;54550;48.838;8.828;2022-07-17T13:10:58;31.00;38.40
67750;DHT22;54550;48.838;8.828;2022-07-17T13:13:24;31.70;39.70
67750;DHT22;54550;48.838;8.828;2022-07-17T13:15:49;32.40;37.60
67750;DHT22;54550;48.838;8.828;2022-07-17T13:18:15;31.90;39.10
67750;DHT22;54550;48.838;8.828;2022-07-17T13:20:41;31.10;40.30
67750;DHT22;54550;48.838;8.828;2022-07-17T13:23:07;30.70;39.90
67750;DHT22;54550;48.838;8.828;2022-07-17T13:25:33;30.50;39.60
67750;DHT22;54550;48.838;8.828;2022-07-17T13:27:59;30.80;40.50
67750;DHT22;54550;48.838;8.828;2022-07-17T13:30:24;31.00;39.30
67750;DHT22;54550;48.838;8.828;2022-07-17T13:32:50;30.60;37.90
67750;DHT22;54550;48.838;8.828;2022-07-17T13:35:16;30.60;39.70
67750;DHT22;54550;48.838;8.828;2022-07-17T13:37:43;31.20;37.80
67750;DHT22;54550;48.838;8.828;2022-07-17T13:40:09;31.10;38.20
67750;DHT22;54550;48.838;8.828;2022-07-17T13:42:35;31.40;39.80
67750;DHT22;54550;48.838;8.828;2022-07-17T13:45:02;31.00;38.50
67750;DHT22;54550;48.838;8.828;2022-07-17T13:47:28;30.70;37.90
67750;DHT22;54550;48.838;8.828;2022-07-17T13:49:54;30.40;39.00
67750;DHT22;54550;48.838;8.828;2022-07-17T13:52:19;30.00;39.50
67750;DHT22;54550;48.838;8.828;2022-07-17T13:54:45;29.80;38.90
67750;DHT22;54550;48.838;8.828;2022-07-17T13:57:10;30.60;39.20
67750;DHT22;54550;48.838;8.828;2022-07-17T13:59:36;30.50;39.70
67750;DHT22;54550;48.838;8.828;2022-07-17T14:02:01;30.70;38.30
67750;DHT22;54550;48.838;8.828;2022-07-17T14:04:27;30.80;38.50
67750;DHT22;54550;48.838;8.828;2022-07-17T14:06:52;30.30;38.60
67750;DHT22;54550;48.838;8.828;2022-07-17T14:09:18;29.80;40.00
67750;DHT22;54550;48.838;8.828;2022-07-17T14:11:44;29.80;40.40
67750;DHT22;54550;48.838;8.828;2022-07-17T14:14:09;30.00;38.60
67750;DHT22;54550;48.838;8.828;2022-07-17T14:16:35;29.40;38.00
67750;DHT22;54550;48.838;8.828;2022-07-17T14:19:00;29.70;39.00
67750;DHT22;54550;48.838;8.828;2022-07-17T14:21:31;30.10;37.80
67750;DHT22;54550;48.838;8.828;2022-07-17T14:23:57;30.40;37.50
67750;DHT22;54550;48.838;8.828;2022-07-17T14:26:23;29.60;39.30
67750;DHT22;54550;48.838;8.828;2022-07-17T14:28:49;29.40;39.10
67750;DHT22;54550;48.838;8.828;2022-07-17T14:31:15;29.10;38.40
67750;DHT22;54550;48.838;8.828;2022-07-17T14:33:41;29.00;40.10
67750;DHT22;54550;48.838;8.828;2022-07-17T14:36:08;29.30;39.80
67750;DHT22;54550;48.838;8.828;2022-07-17T14:38:33;29.30;40.30
67750;DHT22;54550;48.838;8.828;2022-07-17T14:40:59;29.20;40.70
67750;DHT22;54550;48.838;8.828;2022-07-17T14:43:24;28.80;42.50
67750;DHT22;54550;48.838;8.828;2022-07-17T14:45:50;28.70;42.90
67750;DHT22;54550;48.838;8.828;2022-07-17T14:48:15;28.60;43.10
67750;DHT22;54550;48.838;8.828;2022-07-17T14:50:41;28.30;42.60
67750;DHT22;54550;48.838;8.828;2022-07-17T14:53:07;28.30;42.90
67750;DHT22;54550;48.838;8.828;2022-07-17T14:55:32;28.20;42.70
67750;DHT22;54550;48.838;8.828;2022-07-17T14:57:58;28.20;43.10
67750;DHT22;54550;48.838;8.828;2022-07-17T15:00:23;28.10;42.40
67750;DHT22;54550;48.838;8.828;2022-07-17T15:02:49;28.20;43.30
67750;DHT22;54550;48.838;8.828;2022-07-17T15:05:15;28.20;42.70
67750;DHT22;54550;48.838;8.828;2022-07-17T15:07:40;28.20;42.60
67750;DHT22;54550;48.838;8.828;2022-07-17T15:10:06;28.10;42.80
67750;DHT22;54550;48.838;8.828;2022-07-17T15:12:32;28.10;42.60
67750;DHT22;54550;48.838;8.828;2022-07-17T15:14:57;28.20;42.50
67750;DHT22;54550;48.838;8.828;2022-07-17T15:17:23;27.90;42.10
67750;DHT22;54550;48.838;8.828;2022-07-17T15:19:48;27.90;42.20
67750;DHT22;54550;48.838;8.828;2022-07-17T15:22:14;27.90;42.30
67750;DHT22;54550;48.838;8.828;2022-07-17T15:24:39;28.10;42.60
67750;DHT22;54550;48.838;8.828;2022-07-17T15:27:05;28.20;42.30
67750;DHT22;54550;48.838;8.828;2022-07-17T15:29:30;28.10;42.10
67750;DHT22;54550;48.838;8.828;2022-07-17T15:31:56;27.90;42.10
67750;DHT22;54550;48.838;8.828;2022-07-17T15:34:21;27.80;41.80
67750;DHT22;54550;48.838;8.828;2022-07-17T15:36:47;27.90;42.30
67750;DHT22;54550;48.838;8.828;2022-07-17T15:39:12;28.20;42.60
67750;DHT22;54550;48.838;8.828;2022-07-17T15:41:38;28.20;41.90